Time;durP1;ratioP1;P1;durP2;ratioP2;P2;SDS_P1;SDS_P2;PMS_P1;PMS_P2;Temp;Humidity;BMP_temperature;BMP_pressure;BME280_temperature;BME280_humidity;BME280_pressure;Samples;Min_cycle;Max_cycle;Signal;HPM_P1;HPM_P2
2022/10/04 00:01:10;;;;;;;;;;;12.20;99.90;;;;;;4985849;28;19921;-81
2022/10/04 00:03:48;;;;;;;;;;;12.20;99.90;;;;;;4968986;28;19965;-81
2022/10/04 00:06:22;;;;;;;;;;;12.20;99.90;;;;;;4976793;28;19933;-82
2022/10/04 00:08:57;;;;;;;;;;;12.20;99.90;;;;;;4984548;28;20020;-82
2022/10/04 00:11:26;;;;;;;;;;;12.10;99.90;;;;;;4997839;28;19941;-80
2022/10/04 00:14:00;;;;;;;;;;;12.10;99.90;;;;;;4998620;28;19933;-79
2022/10/04 00:16:30;;;;;;;;;;;12.10;99.90;;;;;;4998164;28;19929;-82
2022/10/04 00:19:01;;;;;;;;;;;12.10;99.90;;;;;;4973080;28;19925;-80
2022/10/04 00:21:47;;;;;;;;;;;12.10;99.90;;;;;;4972861;28;19925;-79
2022/10/04 00:24:20;;;;;;;;;;;12.10;99.90;;;;;;4973700;28;19936;-82
2022/10/04 00:26:45;;;;;;;;;;;12.10;99.90;;;;;;4970917;28;19926;-78
2022/10/04 00:29:30;;;;;;;;;;;12.20;99.90;;;;;;4989373;28;19935;-81
2022/10/04 00:32:08;;;;;;;;;;;12.10;99.90;;;;;;4982618;28;19933;-81
2022/10/04 00:34:34;;;;;;;;;;;12.10;99.90;;;;;;4981085;28;19929;-81
2022/10/04 00:37:00;;;;;;;;;;;12.10;99.90;;;;;;4972608;28;20016;-82
2022/10/04 00:39:32;;;;;;;;;;;12.10;99.90;;;;;;4993559;28;19926;-78
2022/10/04 00:42:16;;;;;;;;;;;12.10;99.90;;;;;;4989858;28;20067;-81
2022/10/04 00:44:42;;;;;;;;;;;12.10;99.90;;;;;;4975584;28;20020;-83
2022/10/04 00:47:31;;;;;;;;;;;12.10;99.90;;;;;;4975055;28;20696;-77
2022/10/04 00:50:16;;;;;;;;;;;12.20;99.90;;;;;;4967344;28;19929;-81
2022/10/04 00:52:45;;;;;;;;;;;12.10;99.90;;;;;;4986579;28;19929;-81
2022/10/04 00:55:18;;;;;;;;;;;12.10;99.90;;;;;;4994350;28;20139;-81
2022/10/04 00:57:48;;;;;;;;;;;12.10;99.90;;;;;;4990234;28;19987;-82
2022/10/04 01:00:15;;;;;;;;;;;12.10;99.90;;;;;;4988680;28;19925;-83
2022/10/04 01:02:42;;;;;;;;;;;12.10;99.90;;;;;;4980051;28;19973;-84
2022/10/04 01:05:28;;;;;;;;;;;12.10;99.90;;;;;;4978857;28;19926;-81
2022/10/04 01:08:02;;;;;;;;;;;12.10;99.90;;;;;;4987493;28;19936;-78
2022/10/04 01:10:30;;;;;;;;;;;12.10;99.90;;;;;;4996645;28;19932;-85
2022/10/04 01:13:11;;;;;;;;;;;12.10;99.90;;;;;;4972159;28;20024;-81
2022/10/04 01:15:47;;;;;;;;;;;12.10;99.90;;;;;;4999816;28;19958;-83
2022/10/04 01:18:19;;;;;;;;;;;12.10;99.90;;;;;;4994297;28;19929;-82
2022/10/04 01:20:55;;;;;;;;;;;12.10;99.90;;;;;;4989334;28;19932;-83
2022/10/04 01:23:30;;;;;;;;;;;12.10;99.90;;;;;;4974814;28;20445;-80
2022/10/04 01:25:56;;;;;;;;;;;12.10;99.90;;;;;;4993457;28;20007;-81
2022/10/04 01:28:22;;;;;;;;;;;12.10;99.90;;;;;;4969428;28;20025;-79
2022/10/04 01:30:47;;;;;;;;;;;12.00;99.90;;;;;;4991554;28;20028;-78
2022/10/04 01:33:13;;;;;;;;;;;12.00;99.90;;;;;;4980291;28;19933;-78
2022/10/04 01:35:39;;;;;;;;;;;12.10;99.90;;;;;;4988711;28;19963;-79
2022/10/04 01:38:06;;;;;;;;;;;12.10;99.90;;;;;;4974007;28;19925;-79
2022/10/04 01:40:37;;;;;;;;;;;12.10;99.90;;;;;;4968706;28;19965;-79
2022/10/04 01:43:08;;;;;;;;;;;12.10;99.90;;;;;;4994742;28;19925;-79
2022/10/04 01:45:39;;;;;;;;;;;12.00;99.90;;;;;;4983106;28;19936;-78
2022/10/04 01:48:15;;;;;;;;;;;12.10;99.90;;;;;;4996198;28;19925;-80
2022/10/04 01:50:47;;;;;;;;;;;12.00;99.90;;;;;;5003729;28;19964;-77
2022/10/04 01:53:15;;;;;;;;;;;12.00;99.90;;;;;;5007445;28;19975;-84
2022/10/04 01:55:50;;;;;;;;;;;12.10;99.90;;;;;;4984637;28;20403;-80
2022/10/04 01:58:18;;;;;;;;;;;12.10;99.90;;;;;;4983754;28;19932;-80
2022/10/04 02:00:50;;;;;;;;;;;12.00;99.90;;;;;;4966574;28;20415;-80
2022/10/04 02:03:22;;;;;;;;;;;12.10;99.90;;;;;;5001646;28;19979;-81
2022/10/04 02:08:56;;;;;;;;;;;12.10;99.90;;;;;;5167735;22;19940;-78
2022/10/04 02:11:23;;;;;;;;;;;12.10;99.90;;;;;;5032675;28;20023;-77
2022/10/04 02:13:50;;;;;;;;;;;12.10;99.90;;;;;;5025902;28;20478;-77
2022/10/04 02:16:17;;;;;;;;;;;12.00;99.90;;;;;;5019259;28;19939;-79
2022/10/04 02:18:43;;;;;;;;;;;12.10;99.90;;;;;;5010054;28;19924;-80
2022/10/04 02:21:10;;;;;;;;;;;12.00;99.90;;;;;;5028538;28;19932;-80
2022/10/04 02:23:36;;;;;;;;;;;12.10;99.90;;;;;;5013026;28;20110;-79
2022/10/04 02:26:06;;;;;;;;;;;12.10;99.90;;;;;;5009829;28;19937;-78
2022/10/04 02:28:35;;;;;;;;;;;12.00;99.90;;;;;;5008280;28;19924;-77
2022/10/04 02:33:48;;;;;;;;;;;12.10;99.90;;;;;;5025657;28;19929;-79
2022/10/04 02:36:15;;;;;;;;;;;12.10;99.90;;;;;;5042557;28;19976;-79
2022/10/04 02:38:53;;;;;;;;;;;12.10;99.90;;;;;;5025945;28;19991;-79
2022/10/04 02:41:32;;;;;;;;;;;12.00;99.90;;;;;;5009090;28;20489;-79
2022/10/04 02:44:07;;;;;;;;;;;12.10;99.90;;;;;;5025772;28;19925;-79
2022/10/04 02:46:39;;;;;;;;;;;12.10;99.90;;;;;;5011097;28;19933;-79
2022/10/04 02:49:09;;;;;;;;;;;12.00;99.90;;;;;;5058188;28;19925;-77
2022/10/04 02:51:39;;;;;;;;;;;12.00;99.90;;;;;;5025926;28;19925;-79
2022/10/04 02:54:26;;;;;;;;;;;12.00;99.90;;;;;;5030436;28;20019;-80
2022/10/04 02:56:53;;;;;;;;;;;12.00;99.90;;;;;;4997890;28;19936;-79
2022/10/04 02:59:19;;;;;;;;;;;11.90;99.90;;;;;;5026258;28;19932;-79
2022/10/04 03:01:53;;;;;;;;;;;11.90;99.90;;;;;;5026746;28;19986;-78
2022/10/04 03:04:22;;;;;;;;;;;11.90;99.90;;;;;;5010138;28;20335;-78
2022/10/04 03:06:48;;;;;;;;;;;11.90;99.90;;;;;;5014035;28;19925;-79
2022/10/04 03:09:15;;;;;;;;;;;11.90;99.90;;;;;;5009309;28;20420;-80
2022/10/04 03:11:41;;;;;;;;;;;11.90;99.90;;;;;;5044582;28;19925;-77
2022/10/04 03:14:13;;;;;;;;;;;11.90;99.90;;;;;;5008818;28;19932;-79
2022/10/04 03:16:42;;;;;;;;;;;11.80;99.90;;;;;;5048884;28;20034;-80
2022/10/04 03:19:08;;;;;;;;;;;11.90;99.90;;;;;;5007969;28;19932;-79
2022/10/04 03:21:35;;;;;;;;;;;11.90;99.90;;;;;;5023728;28;19933;-78
2022/10/04 03:24:02;;;;;;;;;;;11.90;99.90;;;;;;5026492;28;19931;-79
2022/10/04 03:26:31;;;;;;;;;;;11.90;99.90;;;;;;5038940;28;19936;-80
2022/10/04 03:29:09;;;;;;;;;;;11.90;99.90;;;;;;5024404;28;19931;-77
2022/10/04 03:31:38;;;;;;;;;;;11.90;99.90;;;;;;5009397;28;20020;-79
2022/10/04 03:34:04;;;;;;;;;;;11.80;99.90;;;;;;5025354;28;20599;-77
2022/10/04 03:36:29;;;;;;;;;;;11.80;99.90;;;;;;5015435;28;19932;-78
2022/10/04 03:38:56;;;;;;;;;;;11.80;99.90;;;;;;4994365;28;20671;-78
2022/10/04 03:41:24;;;;;;;;;;;11.80;99.90;;;;;;5022800;28;20028;-79
2022/10/04 03:43:51;;;;;;;;;;;11.80;99.90;;;;;;5027115;28;19921;-79
2022/10/04 03:46:18;;;;;;;;;;;11.80;99.90;;;;;;5011274;28;20435;-79
2022/10/04 03:48:45;;;;;;;;;;;11.70;99.90;;;;;;5030533;28;19933;-79
2022/10/04 03:51:31;;;;;;;;;;;11.80;99.90;;;;;;5031199;28;19925;-78
2022/10/04 03:53:58;;;;;;;;;;;11.80;99.90;;;;;;5025673;28;19925;-79
2022/10/04 03:56:28;;;;;;;;;;;11.80;99.90;;;;;;5016615;28;19937;-79
2022/10/04 03:58:54;;;;;;;;;;;11.80;99.90;;;;;;5015134;28;19935;-79
2022/10/04 04:01:30;;;;;;;;;;;11.70;99.90;;;;;;5034547;28;19924;-81
2022/10/04 04:03:59;;;;;;;;;;;11.70;99.90;;;;;;5015244;28;20193;-78
2022/10/04 04:06:26;;;;;;;;;;;11.70;99.90;;;;;;5024515;28;19933;-79
2022/10/04 04:08:54;;;;;;;;;;;11.70;99.90;;;;;;5027334;28;19913;-79
2022/10/04 04:11:24;;;;;;;;;;;11.70;99.90;;;;;;5052992;28;19935;-79
2022/10/04 04:13:50;;;;;;;;;;;11.70;99.90;;;;;;5014005;28;19935;-78
2022/10/04 04:16:18;;;;;;;;;;;11.70;99.90;;;;;;5031446;28;19931;-79
2022/10/04 04:18:45;;;;;;;;;;;11.70;99.90;;;;;;5039552;28;19932;-78
2022/10/04 04:21:14;;;;;;;;;;;11.70;99.90;;;;;;5022833;28;19983;-79
2022/10/04 04:23:49;;;;;;;;;;;11.60;99.90;;;;;;5030485;28;20059;-80
2022/10/04 04:26:21;;;;;;;;;;;11.60;99.90;;;;;;5027726;28;20016;-82
2022/10/04 04:28:48;;;;;;;;;;;11.60;99.90;;;;;;5017905;28;19939;-82
2022/10/04 04:31:18;;;;;;;;;;;11.60;99.90;;;;;;5028169;28;20090;-80
2022/10/04 04:33:48;;;;;;;;;;;11.60;99.90;;;;;;5028202;28;19956;-79
2022/10/04 04:36:15;;;;;;;;;;;11.60;99.90;;;;;;5028294;28;19967;-79
2022/10/04 04:41:27;;;;;;;;;;;11.60;99.90;;;;;;5026389;28;20314;-80
2022/10/04 04:43:53;;;;;;;;;;;11.60;99.90;;;;;;5010162;28;20289;-79
2022/10/04 04:46:20;;;;;;;;;;;11.60;99.90;;;;;;5014986;28;20015;-78
2022/10/04 04:48:47;;;;;;;;;;;11.50;99.90;;;;;;5009768;28;20002;-78
2022/10/04 04:51:20;;;;;;;;;;;11.60;99.90;;;;;;5027022;28;19925;-79
2022/10/04 04:53:47;;;;;;;;;;;11.20;99.90;;;;;;5029208;28;19947;-80
2022/10/04 04:56:18;;;;;;;;;;;11.50;99.90;;;;;;5028313;28;19971;-81
2022/10/04 04:58:45;;;;;;;;;;;11.50;99.90;;;;;;5037923;28;20386;-80
2022/10/04 05:01:25;;;;;;;;;;;11.50;99.90;;;;;;5045584;28;20567;-79
2022/10/04 05:04:01;;;;;;;;;;;11.40;99.90;;;;;;5031076;28;20446;-81
2022/10/04 05:06:27;;;;;;;;;;;11.30;99.90;;;;;;5008781;28;20232;-80
2022/10/04 05:08:53;;;;;;;;;;;11.30;99.90;;;;;;5009595;28;19925;-79
2022/10/04 05:11:20;;;;;;;;;;;11.40;99.90;;;;;;5024882;28;19978;-81
2022/10/04 05:13:50;;;;;;;;;;;11.30;99.90;;;;;;5008680;28;20016;-88
2022/10/04 05:16:24;;;;;;;;;;;11.30;99.90;;;;;;5006583;28;19973;-82
2022/10/04 05:18:56;;;;;;;;;;;11.30;99.90;;;;;;5009364;28;20927;-85
2022/10/04 05:21:24;;;;;;;;;;;11.20;99.90;;;;;;4989204;28;19964;-89
2022/10/04 05:23:50;;;;;;;;;;;11.20;99.90;;;;;;5008223;28;20358;-84
2022/10/04 05:26:23;;;;;;;;;;;11.20;99.90;;;;;;5007192;28;19936;-81
2022/10/04 05:28:49;;;;;;;;;;;11.20;99.90;;;;;;4971360;28;20366;-80
2022/10/04 05:31:38;;;;;;;;;;;11.10;99.90;;;;;;5006866;28;20115;-82
2022/10/04 05:34:14;;;;;;;;;;;11.10;99.90;;;;;;5006974;28;20672;-79
2022/10/04 05:36:59;;;;;;;;;;;11.10;99.90;;;;;;5006581;28;20027;-81
2022/10/04 05:39:32;;;;;;;;;;;11.10;99.90;;;;;;5006158;28;19931;-80
2022/10/04 05:44:34;;;;;;;;;;;11.10;99.90;;;;;;5076372;22;20428;-83
2022/10/04 05:47:00;;;;;;;;;;;11.00;99.90;;;;;;5057210;28;19928;-80
2022/10/04 05:49:33;;;;;;;;;;;11.00;99.90;;;;;;5063304;28;20341;-84
2022/10/04 05:52:02;;;;;;;;;;;11.00;99.90;;;;;;5068736;28;19928;-83
2022/10/04 05:54:34;;;;;;;;;;;11.00;99.90;;;;;;5069765;28;19928;-80
2022/10/04 05:57:09;;;;;;;;;;;11.00;99.90;;;;;;5061515;28;19978;-81
2022/10/04 05:59:45;;;;;;;;;;;11.00;99.90;;;;;;5137004;22;19996;-85
2022/10/04 06:02:26;;;;;;;;;;;11.00;99.90;;;;;;5029617;28;19929;-84
2022/10/04 06:05:18;;;;;;;;;;;11.00;99.90;;;;;;5030913;28;20049;-82
2022/10/04 06:07:43;;;;;;;;;;;11.00;99.90;;;;;;5039114;28;20164;-79
2022/10/04 06:10:32;;;;;;;;;;;11.00;99.90;;;;;;5011609;28;19928;-82
2022/10/04 06:13:24;;;;;;;;;;;11.00;99.90;;;;;;4996954;28;19928;-80
2022/10/04 06:16:10;;;;;;;;;;;10.90;99.90;;;;;;5025008;28;19955;-83
2022/10/04 06:18:51;;;;;;;;;;;10.90;99.90;;;;;;5175988;22;19936;-84
2022/10/04 06:21:20;;;;;;;;;;;10.50;99.90;;;;;;5027504;28;19931;-81
2022/10/04 06:23:55;;;;;;;;;;;10.90;99.90;;;;;;5030715;28;19956;-82
2022/10/04 06:26:26;;;;;;;;;;;11.00;99.90;;;;;;5021784;28;20139;-81
2022/10/04 06:28:54;;;;;;;;;;;11.00;99.90;;;;;;5006651;28;19925;-80
2022/10/04 06:31:38;;;;;;;;;;;11.00;99.90;;;;;;5025287;28;19979;-79
2022/10/04 06:34:12;;;;;;;;;;;11.00;99.90;;;;;;5018783;28;20500;-80
2022/10/04 06:36:53;;;;;;;;;;;11.10;99.90;;;;;;5004465;28;19925;-80
2022/10/04 06:39:22;;;;;;;;;;;11.20;99.90;;;;;;5005405;28;19936;-81
2022/10/04 06:41:54;;;;;;;;;;;11.20;99.90;;;;;;5042834;28;19935;-80
2022/10/04 06:44:20;;;;;;;;;;;11.20;99.90;;;;;;5022027;28;19924;-82
2022/10/04 06:46:49;;;;;;;;;;;11.20;99.90;;;;;;5009473;28;19951;-83
2022/10/04 06:49:18;;;;;;;;;;;11.20;99.90;;;;;;5009764;28;19950;-80
2022/10/04 06:51:57;;;;;;;;;;;11.30;99.90;;;;;;5008601;28;19929;-80
2022/10/04 06:54:22;;;;;;;;;;;11.40;99.90;;;;;;5004291;28;20338;-80
2022/10/04 06:57:04;;;;;;;;;;;11.60;99.90;;;;;;5008173;28;19929;-76
2022/10/04 07:00:02;;;;;;;;;;;11.70;99.90;;;;;;5008493;28;19940;-81
2022/10/04 07:02:49;;;;;;;;;;;12.00;99.90;;;;;;5006639;28;19936;-81
2022/10/04 07:05:21;;;;;;;;;;;12.60;99.90;;;;;;5025800;28;20390;-79
2022/10/04 07:08:05;;;;;;;;;;;13.60;99.90;;;;;;5024522;28;19935;-80
2022/10/04 07:10:38;;;;;;;;;;;14.70;99.90;;;;;;5008605;28;19935;-80
2022/10/04 07:13:22;;;;;;;;;;;15.80;99.90;;;;;;5019402;28;19937;-79
2022/10/04 07:15:58;;;;;;;;;;;16.80;99.90;;;;;;5026650;28;20024;-80
2022/10/04 07:18:27;;;;;;;;;;;16.90;99.90;;;;;;5006402;28;19936;-80
2022/10/04 07:21:04;;;;;;;;;;;17.70;99.90;;;;;;4995949;28;19952;-80
2022/10/04 07:23:43;;;;;;;;;;;18.40;99.90;;;;;;4986451;28;20008;-80
2022/10/04 07:26:32;;;;;;;;;;;18.90;99.90;;;;;;5006141;28;19991;-78
2022/10/04 07:29:21;;;;;;;;;;;18.70;99.90;;;;;;4983214;28;19932;-82
2022/10/04 07:32:10;;;;;;;;;;;18.00;99.90;;;;;;5004786;28;20390;-81
2022/10/04 07:34:50;;;;;;;;;;;17.00;99.90;;;;;;5000974;28;19925;-80
2022/10/04 07:37:16;;;;;;;;;;;16.20;99.90;;;;;;5008985;28;19980;-82
2022/10/04 07:39:44;;;;;;;;;;;15.60;99.90;;;;;;5008782;28;19936;-81
2022/10/04 07:42:11;;;;;;;;;;;;;;;;;;4996653;28;19972;-80
2022/10/04 07:44:39;;;;;;;;;;;16.20;99.90;;;;;;4991267;28;20403;-81
2022/10/04 07:47:19;;;;;;;;;;;17.40;99.90;;;;;;4993481;28;19926;-80
2022/10/04 07:49:45;;;;;;;;;;;18.50;99.90;;;;;;5007242;28;19925;-82
2022/10/04 07:52:29;;;;;;;;;;;18.90;99.90;;;;;;5011243;28;20273;-84
2022/10/04 07:55:05;;;;;;;;;;;18.50;99.90;;;;;;5007653;28;20016;-84
2022/10/04 07:57:43;;;;;;;;;;;17.90;99.90;;;;;;5008586;28;20446;-84
2022/10/04 08:00:17;;;;;;;;;;;17.30;99.90;;;;;;4988697;28;19939;-81
2022/10/04 08:03:02;;;;;;;;;;;16.80;99.90;;;;;;5016385;28;19980;-83
2022/10/04 08:05:42;;;;;;;;;;;16.40;99.90;;;;;;5008116;28;19936;-79
2022/10/04 08:08:07;;;;;;;;;;;15.90;99.90;;;;;;4997507;28;19929;-84
2022/10/04 08:10:45;;;;;;;;;;;15.50;99.90;;;;;;5007162;28;19929;-84
2022/10/04 08:13:20;;;;;;;;;;;15.20;99.90;;;;;;5007505;28;19929;-80
2022/10/04 08:15:46;;;;;;;;;;;15.00;99.90;;;;;;4988670;28;19933;-80
2022/10/04 08:18:30;;;;;;;;;;;14.80;99.90;;;;;;4974284;28;20200;-79
2022/10/04 08:21:02;;;;;;;;;;;14.70;99.90;;;;;;5032309;28;19932;-82
2022/10/04 08:23:29;;;;;;;;;;;14.50;99.90;;;;;;5034704;28;19929;-81
2022/10/04 08:26:17;;;;;;;;;;;14.40;99.90;;;;;;5024547;28;19947;-84
2022/10/04 08:32:12;;;;;;;;;;;14.20;99.90;;;;;;5027655;28;20012;-81
2022/10/04 08:34:41;;;;;;;;;;;14.30;99.90;;;;;;5025334;28;19936;-83
2022/10/04 08:37:24;;;;;;;;;;;14.60;99.90;;;;;;5012273;28;19983;-82
2022/10/04 08:39:53;;;;;;;;;;;14.80;99.90;;;;;;5030777;28;20015;-84
2022/10/04 08:42:28;;;;;;;;;;;15.10;99.90;;;;;;5025311;28;20471;-83
2022/10/04 08:45:23;;;;;;;;;;;15.40;99.90;;;;;;5034308;28;19952;-82
2022/10/04 08:47:49;;;;;;;;;;;;;;;;;;4956677;28;20407;-81
2022/10/04 08:50:41;;;;;;;;;;;15.90;99.90;;;;;;5008922;28;19925;-83
2022/10/04 08:53:20;;;;;;;;;;;16.00;99.90;;;;;;4987833;28;19925;-82
2022/10/04 08:55:57;;;;;;;;;;;16.20;99.90;;;;;;5010450;28;19929;-83
2022/10/04 08:58:31;;;;;;;;;;;16.40;99.90;;;;;;5017463;28;19931;-82
2022/10/04 09:01:02;;;;;;;;;;;16.60;99.90;;;;;;5011013;28;19925;-84
2022/10/04 09:03:47;;;;;;;;;;;16.70;99.90;;;;;;5011373;28;19925;-85
2022/10/04 09:06:36;;;;;;;;;;;16.80;99.90;;;;;;5011341;28;20427;-83
2022/10/04 09:09:05;;;;;;;;;;;16.90;99.90;;;;;;5027382;28;19928;-83
2022/10/04 09:11:43;;;;;;;;;;;17.00;99.90;;;;;;5027956;28;19928;-78
2022/10/04 09:14:09;;;;;;;;;;;17.10;99.90;;;;;;5026166;28;20394;-80
2022/10/04 09:16:45;;;;;;;;;;;17.10;99.90;;;;;;5010760;28;19925;-82
2022/10/04 09:19:11;;;;;;;;;;;17.10;99.90;;;;;;5003466;28;19968;-79
2022/10/04 09:21:45;;;;;;;;;;;17.20;99.90;;;;;;4997239;28;19987;-81
2022/10/04 09:24:30;;;;;;;;;;;17.30;99.90;;;;;;4989558;28;19921;-85
2022/10/04 09:27:11;;;;;;;;;;;17.20;99.90;;;;;;5011769;28;20481;-88
2022/10/04 09:29:55;;;;;;;;;;;17.20;99.90;;;;;;4987322;28;19929;-83
2022/10/04 09:32:21;;;;;;;;;;;17.20;99.90;;;;;;5015013;28;19925;-87
2022/10/04 09:34:56;;;;;;;;;;;17.30;99.90;;;;;;5003848;28;19932;-82
2022/10/04 09:37:35;;;;;;;;;;;17.30;99.90;;;;;;4990926;28;19933;-84
2022/10/04 09:40:19;;;;;;;;;;;17.30;99.90;;;;;;5002566;28;20451;-84
2022/10/04 09:42:55;;;;;;;;;;;17.40;99.90;;;;;;5007677;28;19929;-84
2022/10/04 09:45:22;;;;;;;;;;;17.40;99.90;;;;;;4989987;28;20299;-81
2022/10/04 09:48:07;;;;;;;;;;;17.50;99.90;;;;;;4990596;28;19929;-83
2022/10/04 09:50:40;;;;;;;;;;;17.50;99.90;;;;;;4996267;28;19937;-85
2022/10/04 09:53:25;;;;;;;;;;;17.50;99.90;;;;;;5006641;28;19932;-82
2022/10/04 09:56:14;;;;;;;;;;;17.50;99.90;;;;;;5005497;28;19925;-87
2022/10/04 09:58:47;;;;;;;;;;;17.50;99.90;;;;;;4980281;28;19940;-84
2022/10/04 10:01:39;;;;;;;;;;;17.50;99.90;;;;;;4990815;28;20033;-85
2022/10/04 10:04:08;;;;;;;;;;;17.50;99.90;;;;;;5006573;28;19931;-80
2022/10/04 10:06:39;;;;;;;;;;;17.50;99.90;;;;;;4989957;28;19929;-82
2022/10/04 10:09:08;;;;;;;;;;;17.50;99.90;;;;;;4993390;28;19948;-82
2022/10/04 10:14:58;;;;;;;;;;;17.40;99.90;;;;;;5005771;28;20147;-84
2022/10/04 10:17:44;;;;;;;;;;;17.40;99.90;;;;;;5005732;28;19985;-84
2022/10/04 10:20:22;;;;;;;;;;;17.50;99.90;;;;;;5007173;28;20605;-84
2022/10/04 10:23:07;;;;;;;;;;;17.50;99.90;;;;;;5017229;28;20305;-78
2022/10/04 10:25:38;;;;;;;;;;;17.60;99.90;;;;;;5023575;28;20414;-78
2022/10/04 10:28:07;;;;;;;;;;;17.60;99.90;;;;;;5025531;28;20283;-85
2022/10/04 10:30:33;;;;;;;;;;;17.60;99.90;;;;;;5008931;28;19936;-83
2022/10/04 10:33:18;;;;;;;;;;;17.60;99.90;;;;;;5015047;28;19939;-79
2022/10/04 10:35:47;;;;;;;;;;;17.70;99.90;;;;;;5028337;28;20327;-79
2022/10/04 10:38:28;;;;;;;;;;;17.70;99.90;;;;;;5025500;28;19992;-78
2022/10/04 10:41:19;;;;;;;;;;;17.70;99.90;;;;;;5013483;28;20443;-78
2022/10/04 10:44:01;;;;;;;;;;;17.80;99.90;;;;;;5016891;28;19986;-87
2022/10/04 10:46:33;;;;;;;;;;;17.80;99.90;;;;;;5011980;28;19928;-82
2022/10/04 10:49:19;;;;;;;;;;;17.80;99.90;;;;;;5026745;28;20002;-80
2022/10/04 10:51:48;;;;;;;;;;;17.90;99.90;;;;;;5043625;28;20486;-81
2022/10/04 10:54:33;;;;;;;;;;;18.00;99.90;;;;;;5024241;28;19951;-80
2022/10/04 10:57:05;;;;;;;;;;;18.10;99.90;;;;;;5017820;28;20015;-83
2022/10/04 10:59:40;;;;;;;;;;;18.20;99.90;;;;;;5024853;28;19972;-78
2022/10/04 11:02:09;;;;;;;;;;;18.30;99.90;;;;;;5027392;28;20528;-81
2022/10/04 11:04:35;;;;;;;;;;;18.30;99.90;;;;;;5010907;28;19935;-82
2022/10/04 11:07:21;;;;;;;;;;;18.40;99.90;;;;;;5004350;28;19925;-77
2022/10/04 11:09:56;;;;;;;;;;;18.40;99.90;;;;;;5021841;28;19929;-82
2022/10/04 11:12:25;;;;;;;;;;;18.50;99.90;;;;;;5013224;28;20025;-86
2022/10/04 11:15:15;;;;;;;;;;;18.50;99.90;;;;;;5027745;28;19925;-84
2022/10/04 11:17:59;;;;;;;;;;;18.50;99.90;;;;;;5012438;28;19925;-84
2022/10/04 11:20:25;;;;;;;;;;;18.40;99.90;;;;;;5029239;28;19944;-83
2022/10/04 11:23:06;;;;;;;;;;;18.50;99.90;;;;;;5030417;28;20322;-80
2022/10/04 11:25:50;;;;;;;;;;;18.50;99.90;;;;;;5029713;28;19935;-81
2022/10/04 11:28:17;;;;;;;;;;;18.40;99.90;;;;;;5032725;28;20008;-79
2022/10/04 11:31:00;;;;;;;;;;;18.40;99.90;;;;;;5014476;28;19937;-83
2022/10/04 11:33:34;;;;;;;;;;;18.40;99.90;;;;;;5018859;22;19953;-79
2022/10/04 11:36:16;;;;;;;;;;;18.60;99.90;;;;;;5000552;28;19925;-79
2022/10/04 11:38:52;;;;;;;;;;;18.40;99.90;;;;;;4996726;28;19964;-84
2022/10/04 11:41:38;;;;;;;;;;;18.40;99.90;;;;;;4976660;28;19934;-77
2022/10/04 11:44:23;;;;;;;;;;;18.30;99.90;;;;;;5019943;28;19984;-78
2022/10/04 11:46:59;;;;;;;;;;;18.40;99.90;;;;;;4986608;28;19933;-79
2022/10/04 11:49:46;;;;;;;;;;;18.40;99.90;;;;;;4977194;28;19935;-83
2022/10/04 11:52:30;;;;;;;;;;;18.60;99.90;;;;;;4974935;28;19936;-84
2022/10/04 11:55:16;;;;;;;;;;;18.60;99.90;;;;;;4994863;28;19937;-81
2022/10/04 11:57:45;;;;;;;;;;;18.50;99.90;;;;;;4989335;28;19926;-81
2022/10/04 12:00:19;;;;;;;;;;;18.50;99.90;;;;;;4996861;28;20189;-81
2022/10/04 12:02:46;;;;;;;;;;;18.50;99.90;;;;;;4992073;28;20246;-88
2022/10/04 12:05:31;;;;;;;;;;;18.50;99.90;;;;;;4972640;28;19930;-80
2022/10/04 12:08:09;;;;;;;;;;;18.50;99.90;;;;;;4989611;28;19929;-82
2022/10/04 12:10:37;;;;;;;;;;;18.50;99.90;;;;;;4989635;28;19973;-80
2022/10/04 12:13:22;;;;;;;;;;;18.50;99.90;;;;;;5004004;28;19936;-80
2022/10/04 12:16:11;;;;;;;;;;;18.40;99.90;;;;;;4991590;28;19952;-81
2022/10/04 12:18:49;;;;;;;;;;;18.40;99.90;;;;;;4988408;28;19941;-80
2022/10/04 12:21:39;;;;;;;;;;;18.40;99.90;;;;;;4989518;28;19952;-84
2022/10/04 12:24:32;;;;;;;;;;;18.40;99.90;;;;;;5008667;28;20037;-81
2022/10/04 12:27:03;;;;;;;;;;;18.50;99.90;;;;;;4988911;28;20108;-84
2022/10/04 12:29:44;;;;;;;;;;;18.50;99.90;;;;;;5008828;28;19929;-81
2022/10/04 12:32:39;;;;;;;;;;;18.40;99.90;;;;;;5003940;28;19925;-81
2022/10/04 12:35:31;;;;;;;;;;;18.40;99.90;;;;;;4953325;28;19937;-84
2022/10/04 12:38:07;;;;;;;;;;;18.40;99.90;;;;;;4984625;28;20019;-79
2022/10/04 12:40:41;;;;;;;;;;;18.40;99.90;;;;;;5017641;28;20283;-83
2022/10/04 12:43:29;;;;;;;;;;;18.40;99.90;;;;;;5002839;28;19929;-77
2022/10/04 12:45:58;;;;;;;;;;;18.40;99.90;;;;;;5017252;28;19936;-82
2022/10/04 12:48:41;;;;;;;;;;;18.40;99.90;;;;;;5010123;28;19929;-84
2022/10/04 12:51:27;;;;;;;;;;;18.40;99.90;;;;;;5026517;28;19972;-83
2022/10/04 12:53:56;;;;;;;;;;;18.30;99.90;;;;;;5020294;28;20048;-84
2022/10/04 12:56:40;;;;;;;;;;;18.20;99.90;;;;;;5010766;28;19929;-80
2022/10/04 12:59:14;;;;;;;;;;;18.10;99.90;;;;;;5029562;28;19935;-87
2022/10/04 13:02:00;;;;;;;;;;;18.00;99.90;;;;;;5011907;28;19940;-85
2022/10/04 13:05:07;;;;;;;;;;;17.90;99.90;;;;;;5005346;28;19944;-82
2022/10/04 13:07:45;;;;;;;;;;;17.90;99.90;;;;;;4911162;29;19981;-83
2022/10/04 13:10:23;;;;;;;;;;;17.90;99.90;;;;;;4940854;28;20531;-82
2022/10/04 13:13:09;;;;;;;;;;;17.80;99.90;;;;;;4926497;28;20478;-88
2022/10/04 13:15:38;;;;;;;;;;;17.80;99.90;;;;;;4953299;28;19965;-84
2022/10/04 13:18:25;;;;;;;;;;;17.70;99.90;;;;;;5012735;28;20391;-83
2022/10/04 13:21:08;;;;;;;;;;;17.70;99.90;;;;;;4992194;23;19983;-78
2022/10/04 13:23:34;;;;;;;;;;;17.70;99.90;;;;;;4991875;28;20261;-81
2022/10/04 13:26:00;;;;;;;;;;;17.80;99.90;;;;;;4995476;28;19986;-82
2022/10/04 13:28:37;;;;;;;;;;;17.80;99.90;;;;;;4988005;28;19925;-87
2022/10/04 13:31:31;;;;;;;;;;;17.80;99.90;;;;;;5007741;28;19932;-83
2022/10/04 13:34:17;;;;;;;;;;;17.80;99.90;;;;;;4989435;28;19929;-86
2022/10/04 13:36:50;;;;;;;;;;;17.80;99.90;;;;;;5006979;28;19948;-86
2022/10/04 13:39:34;;;;;;;;;;;17.80;99.90;;;;;;4990468;28;19980;-84
2022/10/04 13:42:04;;;;;;;;;;;17.80;99.90;;;;;;5001027;28;19968;-83
2022/10/04 13:44:53;;;;;;;;;;;17.80;99.90;;;;;;4990406;28;19925;-82
2022/10/04 13:47:30;;;;;;;;;;;17.80;99.90;;;;;;4996943;28;19937;-80
2022/10/04 13:50:05;;;;;;;;;;;17.70;99.90;;;;;;5008284;28;19982;-80
2022/10/04 13:58:55;;;;;;;;;;;17.50;99.90;;;;;;5008269;28;19941;-82
2022/10/04 14:01:37;;;;;;;;;;;17.40;99.90;;;;;;5004445;28;19972;-76
2022/10/04 14:04:26;;;;;;;;;;;17.30;99.90;;;;;;5011215;28;20039;-81
2022/10/04 14:07:06;;;;;;;;;;;17.30;99.90;;;;;;4991363;28;19935;-80
2022/10/04 14:09:50;;;;;;;;;;;17.20;99.90;;;;;;4991125;28;19929;-81
2022/10/04 14:12:35;;;;;;;;;;;17.20;99.90;;;;;;4997107;28;20589;-80
2022/10/04 14:15:22;;;;;;;;;;;17.10;99.90;;;;;;5008137;28;19932;-82
2022/10/04 14:17:51;;;;;;;;;;;17.10;99.90;;;;;;5011038;28;19929;-79
2022/10/04 14:20:22;;;;;;;;;;;17.00;99.90;;;;;;4998850;28;20306;-81
2022/10/04 14:23:08;;;;;;;;;;;17.00;99.90;;;;;;5047639;28;20369;-81
2022/10/04 14:25:57;;;;;;;;;;;17.00;99.90;;;;;;5034577;28;19925;-77
2022/10/04 14:28:42;;;;;;;;;;;17.00;99.90;;;;;;5008257;28;19933;-80
2022/10/04 14:31:27;;;;;;;;;;;17.00;99.90;;;;;;5017617;28;20086;-77
2022/10/04 14:34:11;;;;;;;;;;;17.00;99.90;;;;;;5009796;28;19935;-78
2022/10/04 14:36:39;;;;;;;;;;;16.90;99.90;;;;;;5007408;28;19935;-80
2022/10/04 14:39:06;;;;;;;;;;;16.90;99.90;;;;;;5014187;28;19952;-81
2022/10/04 14:41:48;;;;;;;;;;;16.90;99.90;;;;;;5025822;28;20383;-82
2022/10/04 14:44:33;;;;;;;;;;;16.80;99.90;;;;;;5008743;28;19994;-81
2022/10/04 14:47:10;;;;;;;;;;;16.80;99.90;;;;;;5021926;28;19937;-81
2022/10/04 14:49:56;;;;;;;;;;;16.80;99.90;;;;;;5026752;28;19925;-80
2022/10/04 14:52:45;;;;;;;;;;;16.80;99.90;;;;;;5026425;28;19925;-81
2022/10/04 14:55:28;;;;;;;;;;;16.80;99.90;;;;;;5026250;28;20465;-82
2022/10/04 14:58:01;;;;;;;;;;;16.70;99.90;;;;;;5023753;28;20818;-84
2022/10/04 15:00:32;;;;;;;;;;;16.70;99.90;;;;;;5012282;28;20383;-82
2022/10/04 15:03:10;;;;;;;;;;;16.70;99.90;;;;;;5042887;28;19975;-79
2022/10/04 15:05:51;;;;;;;;;;;16.70;99.90;;;;;;5025013;28;19933;-82
2022/10/04 15:08:20;;;;;;;;;;;16.60;99.90;;;;;;5027454;28;20557;-84
2022/10/04 15:11:05;;;;;;;;;;;16.60;99.90;;;;;;5005638;28;19931;-83
2022/10/04 15:13:49;;;;;;;;;;;16.60;99.90;;;;;;5018141;28;19933;-83
2022/10/04 15:16:27;;;;;;;;;;;16.50;99.90;;;;;;5022521;28;20019;-82
2022/10/04 15:18:56;;;;;;;;;;;16.50;99.90;;;;;;5023111;28;19929;-81
2022/10/04 15:21:41;;;;;;;;;;;16.50;99.90;;;;;;5019600;28;19975;-81
2022/10/04 15:24:16;;;;;;;;;;;16.40;99.90;;;;;;5009420;28;20433;-80
2022/10/04 15:26:48;;;;;;;;;;;16.40;99.90;;;;;;5010567;28;19929;-84
2022/10/04 15:29:23;;;;;;;;;;;16.30;99.90;;;;;;5006736;28;19937;-82